Time;durP1;ratioP1;P1;durP2;ratioP2;P2;SDS_P1;SDS_P2;PMS_P1;PMS_P2;Temp;Humidity;BMP_temperature;BMP_pressure;BME280_temperature;BME280_humidity;BME280_pressure;Samples;Min_cycle;Max_cycle;Signal;HPM_P1;HPM_P2
2021/12/23 00:02:13;;;;;;;70.50;29.80;;;;;;;-4.87;100.00;98494.81;4938037;29;20511;-80
2021/12/23 00:04:39;;;;;;;74.20;28.67;;;;;;;-4.97;100.00;98505.13;4937788;29;20051;-79
2021/12/23 00:07:05;;;;;;;62.00;25.40;;;;;;;-4.97;100.00;98505.13;4904625;29;20036;-78
2021/12/23 00:10:12;;;;;;;50.92;22.73;;;;;;;-5.03;100.00;98497.19;4934798;29;20039;-78
2021/12/23 00:12:19;;;;;;;46.40;20.38;;;;;;;-5.04;100.00;98502.38;4932677;29;20536;-78
2021/12/23 00:14:50;;;;;;;41.90;18.25;;;;;;;-5.02;100.00;98506.78;4910455;29;20035;-78
2021/12/23 00:17:25;;;;;;;39.63;16.63;;;;;;;-5.05;100.00;98505.88;4922146;29;20412;-78
2021/12/23 00:23:24;;;;;;;43.53;16.40;;;;;;;-5.08;100.00;98516.25;4904400;29;20039;-77
2021/12/23 00:25:30;;;;;;;36.92;13.93;;;;;;;-5.12;100.00;98507.50;4940529;28;20042;-79
2021/12/23 00:27:55;;;;;;;30.17;15.07;;;;;;;-5.18;100.00;98511.75;4922036;29;20483;-78
2021/12/23 00:30:21;;;;;;;33.35;17.08;;;;;;;-5.20;100.00;98514.31;4937566;29;20046;-79
2021/12/23 00:32:46;;;;;;;34.25;15.85;;;;;;;-5.34;100.00;98502.81;4934918;29;20067;-77
2021/12/23 00:35:12;;;;;;;30.90;15.70;;;;;;;-5.29;100.00;98503.75;4932082;29;20035;-78
2021/12/23 00:37:43;;;;;;;29.65;15.15;;;;;;;-5.35;100.00;98508.88;4921378;29;20042;-79
2021/12/23 00:40:11;;;;;;;43.10;18.80;;;;;;;-5.26;100.00;98506.41;4938269;29;20039;-78
2021/12/23 00:42:37;;;;;;;42.63;18.75;;;;;;;-5.30;100.00;98498.53;4929641;29;20043;-84
2021/12/23 00:45:04;;;;;;;37.05;16.95;;;;;;;-5.33;100.00;98488.06;4919545;29;20043;-84
2021/12/23 00:47:30;;;;;;;45.20;18.25;;;;;;;-5.29;100.00;98495.94;4939279;29;20044;-84
2021/12/23 00:49:56;;;;;;;55.10;21.42;;;;;;;-5.29;100.00;98489.88;4927340;29;20070;-84
2021/12/23 00:52:41;;;;;;;37.03;17.50;;;;;;;-5.39;100.00;98485.34;4946369;29;20047;-84
2021/12/23 00:55:09;;;;;;;51.83;19.55;;;;;;;-5.34;100.00;98501.94;4938017;29;20488;-83
2021/12/23 00:57:40;;;;;;;48.45;18.50;;;;;;;-5.34;100.00;98497.59;4931235;29;20035;-82
2021/12/23 01:00:10;;;;;;;40.92;17.88;;;;;;;-5.37;100.00;98492.34;4934149;29;20058;-84
2021/12/23 01:02:35;;;;;;;42.67;18.92;;;;;;;-5.48;100.00;98488.69;4925601;29;20035;-83
2021/12/23 01:05:02;;;;;;;40.45;18.73;;;;;;;-5.44;100.00;98490.47;4939302;29;20155;-82
2021/12/23 01:07:28;;;;;;;41.17;19.73;;;;;;;-5.42;100.00;98487.91;4926539;29;20046;-82
2021/12/23 01:09:54;;;;;;;42.70;19.33;;;;;;;-5.38;100.00;98484.50;4926352;29;20047;-76
2021/12/23 01:12:25;;;;;;;56.58;19.98;;;;;;;-5.43;100.00;98471.41;4919646;29;20536;-75
2021/12/23 01:15:13;;;;;;;49.28;20.65;;;;;;;-5.55;100.00;98466.88;4931945;29;20035;-77
2021/12/23 01:17:59;;;;;;;45.55;20.00;;;;;;;-5.62;100.00;98470.22;4937922;29;20500;-76
2021/12/23 01:20:29;;;;;;;45.00;19.90;;;;;;;-5.65;100.00;98490.13;4930721;29;20491;-76
2021/12/23 01:23:01;;;;;;;38.10;18.38;;;;;;;-5.60;100.00;98491.13;4926921;29;20031;-75
2021/12/23 01:25:27;;;;;;;43.67;19.33;;;;;;;-5.82;100.00;98481.19;4948026;29;20039;-76
2021/12/23 01:27:53;;;;;;;52.60;22.20;;;;;;;-5.79;100.00;98486.44;4943322;29;20107;-77
2021/12/23 01:30:19;;;;;;;57.20;22.77;;;;;;;-5.74;100.00;98484.78;4929387;29;20046;-74
2021/12/23 01:32:46;;;;;;;54.58;24.48;;;;;;;-5.66;100.00;98472.78;4925424;29;20042;-76
2021/12/23 01:35:12;;;;;;;51.67;21.23;;;;;;;-5.67;100.00;98471.00;4929294;29;20388;-77
2021/12/23 01:37:38;;;;;;;46.20;20.67;;;;;;;-5.57;100.00;98478.13;4944884;29;20071;-76
2021/12/23 01:40:04;;;;;;;57.92;26.00;;;;;;;-5.56;100.00;98475.53;4932611;29;20035;-76
2021/12/23 01:42:30;;;;;;;55.45;24.30;;;;;;;-5.60;100.00;98467.66;4927205;28;20065;-77
2021/12/23 01:44:56;;;;;;;58.63;26.15;;;;;;;-5.57;100.00;98472.94;4922975;28;20039;-84
2021/12/23 01:47:23;;;;;;;67.97;27.80;;;;;;;-5.56;100.00;98474.66;4936100;28;20042;-82
2021/12/23 01:49:49;;;;;;;70.78;28.25;;;;;;;-5.48;100.00;98488.69;4937242;28;20058;-82
2021/12/23 01:52:15;;;;;;;69.13;27.38;;;;;;;-5.63;100.00;98470.22;4940171;28;20043;-81
2021/12/23 01:54:40;;;;;;;69.43;28.20;;;;;;;-5.57;100.00;98473.78;4940937;28;20077;-84
2021/12/23 01:57:06;;;;;;;70.32;29.45;;;;;;;-5.51;100.00;98465.19;4933313;28;20031;-82
2021/12/23 01:59:33;;;;;;;71.25;29.02;;;;;;;-5.47;100.00;98474.78;4925285;28;20045;-84
2021/12/23 02:01:59;;;;;;;74.85;32.30;;;;;;;-5.45;100.00;98467.03;4943343;28;20101;-85
2021/12/23 02:04:24;;;;;;;80.30;33.30;;;;;;;-5.44;100.00;98474.84;4929245;28;20046;-84
2021/12/23 02:06:50;;;;;;;92.38;34.63;;;;;;;-5.52;100.00;98471.25;4955390;28;20042;-80
2021/12/23 02:09:16;;;;;;;83.97;36.72;;;;;;;-5.62;100.00;98470.22;4931778;29;20054;-80
2021/12/23 02:11:41;;;;;;;74.97;31.58;;;;;;;-5.63;100.00;98467.63;4935040;28;20041;-80
2021/12/23 02:14:07;;;;;;;78.15;32.45;;;;;;;-5.65;100.00;98478.00;4939520;28;20031;-80
2021/12/23 02:16:33;;;;;;;79.35;32.63;;;;;;;-5.53;100.00;98478.19;4921835;28;20061;-79
2021/12/23 02:18:58;;;;;;;80.35;33.03;;;;;;;-5.44;100.00;98474.84;4925387;28;20101;-77
2021/12/23 02:21:24;;;;;;;78.28;31.42;;;;;;;-5.55;100.00;98471.22;4922800;28;20042;-78
2021/12/23 02:23:50;;;;;;;76.88;30.23;;;;;;;-5.70;100.00;98484.00;4935904;29;20043;-77
2021/12/23 02:26:15;;;;;;;79.78;30.17;;;;;;;-5.72;100.00;98483.09;4919819;28;20039;-78
2021/12/23 02:28:41;;;;;;;85.90;34.80;;;;;;;-5.77;100.00;98482.13;4923894;28;20100;-79
2021/12/23 02:31:06;;;;;;;69.72;29.25;;;;;;;-5.86;100.00;98468.97;4932390;28;20043;-79
2021/12/23 02:33:34;;;;;;;73.40;30.17;;;;;;;-5.92;100.00;98484.50;4938272;28;20117;-79
2021/12/23 02:36:00;;;;;;;68.60;28.05;;;;;;;-5.99;100.00;98487.84;4937170;28;20479;-79
2021/12/23 02:38:26;;;;;;;61.35;27.55;;;;;;;-6.00;100.00;98489.59;4922998;28;20388;-79
2021/12/23 02:40:52;;;;;;;68.32;29.67;;;;;;;-6.09;100.00;98474.66;4920300;29;20185;-79
2021/12/23 02:43:20;;;;;;;67.28;30.40;;;;;;;-6.09;100.00;98474.66;4935726;28;20094;-79
2021/12/23 02:45:47;;;;;;;53.85;23.40;;;;;;;-6.08;100.00;98479.03;4923976;28;20051;-78
2021/12/23 02:48:15;;;;;;;53.45;21.73;;;;;;;-6.26;100.00;98473.50;4930472;28;20415;-78
2021/12/23 02:50:43;;;;;;;49.00;20.83;;;;;;;-6.41;100.00;98470.59;4954666;28;20034;-78
2021/12/23 02:53:09;;;;;;;46.95;18.20;;;;;;;-6.34;100.00;98488.09;4925490;28;20035;-79
2021/12/23 02:55:34;;;;;;;58.40;20.52;;;;;;;-6.29;100.00;98488.16;4919675;28;20043;-79
2021/12/23 02:58:00;;;;;;;50.70;18.83;;;;;;;-6.36;100.00;98470.66;4921507;28;20047;-78
2021/12/23 03:00:26;;;;;;;39.92;16.95;;;;;;;-6.31;100.00;98488.16;4924052;29;20043;-78
2021/12/23 03:02:51;;;;;;;41.88;17.25;;;;;;;-6.33;100.00;98475.94;4926041;28;20042;-79
2021/12/23 03:05:17;;;;;;;38.83;17.02;;;;;;;-6.29;100.00;98470.81;4928276;28;20042;-79
2021/12/23 03:07:42;;;;;;;45.38;17.05;;;;;;;-6.22;100.00;98479.63;4923641;29;20035;-78
2021/12/23 03:10:09;;;;;;;51.28;19.58;;;;;;;-6.22;100.00;98475.31;4940993;28;20043;-79
2021/12/23 03:12:35;;;;;;;38.72;16.60;;;;;;;-6.31;100.00;98466.44;4952111;29;20031;-79
2021/12/23 03:15:01;;;;;;;44.38;18.23;;;;;;;-6.38;100.00;98473.25;4924020;28;20046;-78
2021/12/23 03:17:26;;;;;;;36.22;16.35;;;;;;;-6.36;100.00;98465.47;4929615;28;20049;-78
2021/12/23 03:19:52;;;;;;;39.85;17.65;;;;;;;-6.40;100.00;98469.75;4922885;29;20039;-79
2021/12/23 03:22:18;;;;;;;38.15;16.55;;;;;;;-6.43;100.00;98474.91;4933752;28;20035;-78
2021/12/23 03:24:44;;;;;;;42.30;18.08;;;;;;;-6.39;100.00;98475.81;4927544;29;20062;-79
2021/12/23 03:27:09;;;;;;;39.20;16.55;;;;;;;-6.37;100.00;98468.94;4938885;28;20073;-78
2021/12/23 03:29:35;;;;;;;41.53;18.00;;;;;;;-6.37;100.00;98461.13;4942005;28;20580;-78
2021/12/23 03:32:01;;;;;;;41.83;18.10;;;;;;;-6.29;100.00;98463.03;4956391;28;20090;-80
2021/12/23 03:34:26;;;;;;;50.55;19.25;;;;;;;-6.19;100.00;98470.16;4935209;28;20396;-79
2021/12/23 03:36:52;;;;;;;54.97;22.85;;;;;;;-6.22;100.00;98462.28;4934386;29;20046;-80
2021/12/23 03:39:19;;;;;;;50.10;19.52;;;;;;;-6.31;100.00;98458.66;4921877;28;20043;-79
2021/12/23 03:41:45;;;;;;;45.10;20.48;;;;;;;-6.37;100.00;98459.41;4922539;29;20039;-78
2021/12/23 03:44:11;;;;;;;44.70;21.27;;;;;;;-6.47;100.00;98461.78;4955535;28;20410;-78
2021/12/23 03:46:37;;;;;;;49.17;21.52;;;;;;;-6.52;100.00;98461.69;4930109;29;20043;-80
2021/12/23 03:49:05;;;;;;;45.65;21.00;;;;;;;-6.43;100.00;98474.91;4938979;28;20129;-79
2021/12/23 03:51:31;;;;;;;57.30;22.52;;;;;;;-6.60;100.00;98456.34;4941024;28;20090;-78
2021/12/23 03:53:57;;;;;;;60.97;22.58;;;;;;;-6.54;100.00;98463.41;4950496;28;20510;-79
2021/12/23 03:56:22;;;;;;;47.25;20.17;;;;;;;-6.46;100.00;98472.25;4922595;28;20118;-79
2021/12/23 03:58:48;;;;;;;43.83;19.42;;;;;;;-6.51;100.00;98467.78;4922171;29;20039;-79
2021/12/23 04:01:14;;;;;;;40.47;17.30;;;;;;;-6.61;100.00;98459.78;4921966;28;20035;-79
2021/12/23 04:03:40;;;;;;;30.42;15.85;;;;;;;-6.60;100.00;98473.69;4934808;28;20041;-78
2021/12/23 04:06:05;;;;;;;36.20;16.85;;;;;;;-6.61;100.00;98474.53;4940520;28;20030;-78
2021/12/23 04:08:31;;;;;;;39.33;16.30;;;;;;;-6.57;100.00;98465.94;4921782;28;20385;-78
2021/12/23 04:10:59;;;;;;;54.30;22.17;;;;;;;-6.60;100.00;98460.69;4928150;28;20905;-79
2021/12/23 04:13:28;;;;;;;75.18;30.42;;;;;;;-6.46;100.00;98468.75;4954499;28;20495;-79
2021/12/23 04:15:53;;;;;;;46.38;22.35;;;;;;;-6.47;100.00;98464.41;4944191;28;20070;-79
2021/12/23 04:18:19;;;;;;;51.00;21.20;;;;;;;-6.56;100.00;98467.72;4937281;28;20069;-78
2021/12/23 04:20:53;;;;;;;51.72;22.52;;;;;;;-6.55;100.00;98474.66;4921812;29;20513;-77
2021/12/23 04:23:20;;;;;;;45.25;20.17;;;;;;;-6.67;100.00;98474.41;4922237;28;20090;-79
2021/12/23 04:25:46;;;;;;;45.55;19.40;;;;;;;-6.72;100.00;98476.94;4921820;29;20027;-79
2021/12/23 04:28:12;;;;;;;42.75;19.60;;;;;;;-6.70;100.00;98471.75;4921088;28;20421;-78
2021/12/23 04:30:37;;;;;;;50.10;20.90;;;;;;;-6.81;100.00;98471.53;4921503;29;20098;-79
2021/12/23 04:33:03;;;;;;;41.30;19.83;;;;;;;-6.72;100.00;98476.03;4919271;28;20601;-79
2021/12/23 04:35:30;;;;;;;49.25;20.77;;;;;;;-6.75;100.00;98470.78;4929642;29;20041;-78
2021/12/23 04:37:55;;;;;;;52.88;22.15;;;;;;;-6.89;100.00;98461.84;4927847;29;20039;-88
2021/12/23 04:40:21;;;;;;;59.30;21.88;;;;;;;-6.69;100.00;98476.09;4934508;28;20058;-88
2021/12/23 04:42:46;;;;;;;60.10;23.95;;;;;;;-6.58;100.00;98477.19;4930464;29;20047;-87
2021/12/23 04:45:12;;;;;;;55.55;22.65;;;;;;;-6.52;100.00;98482.50;4940855;28;20467;-87
2021/12/23 04:47:42;;;;;;;48.05;21.38;;;;;;;-6.64;100.00;98466.66;4935025;28;20049;-85
2021/12/23 04:50:11;;;;;;;45.60;20.67;;;;;;;-6.85;100.00;98438.50;4933677;28;20423;-87
2021/12/23 04:52:37;;;;;;;68.03;31.60;;;;;;;-6.60;100.00;98482.38;4935272;28;20859;-87
2021/12/23 04:55:03;;;;;;;60.13;26.02;;;;;;;-6.84;100.00;98449.78;4934923;28;20105;-88
2021/12/23 04:57:29;;;;;;;75.80;30.92;;;;;;;-6.71;100.00;98483.88;4937577;29;20046;-87
2021/12/23 04:59:55;;;;;;;81.00;34.83;;;;;;;-6.64;100.00;98496.16;4935892;28;20035;-88
2021/12/23 05:02:20;;;;;;;72.40;31.15;;;;;;;-6.64;100.00;98488.34;4933102;28;20501;-87
2021/12/23 05:04:50;;;;;;;81.32;34.00;;;;;;;-6.91;100.00;98463.50;4932024;29;20049;-88
2021/12/23 05:07:16;;;;;;;143.13;42.20;;;;;;;-6.82;100.00;98479.28;4944470;28;20050;-91
2021/12/23 05:09:42;;;;;;;119.40;39.97;;;;;;;-6.85;100.00;98474.91;4944067;28;20038;-88
2021/12/23 05:12:08;;;;;;;121.53;43.90;;;;;;;-6.90;100.00;98466.16;4938478;28;20043;-87
2021/12/23 05:14:34;;;;;;;132.90;48.17;;;;;;;-6.88;100.00;98469.66;4934725;28;20039;-89
2021/12/23 05:16:59;;;;;;;152.35;51.35;;;;;;;-6.84;100.00;98465.41;4944250;28;20540;-89
2021/12/23 05:19:25;;;;;;;128.88;46.90;;;;;;;-6.83;100.00;98480.16;4936640;28;20105;-82
2021/12/23 05:21:50;;;;;;;151.95;52.42;;;;;;;-6.85;100.00;98474.03;4925059;29;20034;-88
2021/12/23 05:24:16;;;;;;;154.57;58.47;;;;;;;-7.10;100.00;98466.59;4932539;28;20035;-88
2021/12/23 05:26:41;;;;;;;147.13;53.85;;;;;;;-7.06;100.00;98473.56;4935788;29;20080;-87
2021/12/23 05:29:07;;;;;;;144.20;55.33;;;;;;;-7.07;100.00;98471.84;4939054;28;20113;-86
2021/12/23 05:31:33;;;;;;;114.18;45.90;;;;;;;-7.21;100.00;98459.41;4931585;28;20039;-86
2021/12/23 05:34:07;;;;;;;130.63;50.25;;;;;;;-7.11;100.00;98467.41;4929345;28;20046;-87
2021/12/23 05:36:33;;;;;;;135.60;55.95;;;;;;;-7.15;100.00;98464.75;4924722;29;20047;-87
2021/12/23 05:38:59;;;;;;;98.88;41.22;;;;;;;-7.20;100.00;98455.97;4926780;29;20031;-87
2021/12/23 05:41:27;;;;;;;109.32;42.03;;;;;;;-7.17;100.00;98450.81;4914798;29;20488;-86
2021/12/23 05:44:08;;;;;;;129.20;53.95;;;;;;;-7.18;100.00;98443.91;4930727;29;20103;-86
2021/12/23 05:46:33;;;;;;;65.00;28.80;;;;;;;-7.05;100.00;98472.75;4923175;29;20031;-87
2021/12/23 05:48:59;;;;;;;62.47;22.88;;;;;;;-7.31;100.00;98434.06;4931762;28;20069;-86
2021/12/23 05:51:25;;;;;;;45.65;19.98;;;;;;;-7.42;100.00;98435.56;4941929;28;20066;-86
2021/12/23 05:53:51;;;;;;;52.45;20.17;;;;;;;-7.20;100.00;98481.94;4930859;29;20046;-87
2021/12/23 05:56:17;;;;;;;48.70;21.13;;;;;;;-7.54;100.00;98427.50;4939724;28;20341;-86
2021/12/23 05:58:42;;;;;;;56.60;19.98;;;;;;;-7.26;100.00;98470.56;4940727;28;20039;-88
2021/12/23 06:01:08;;;;;;;56.72;19.98;;;;;;;-7.27;100.00;98455.81;4925035;29;20562;-86
2021/12/23 06:03:33;;;;;;;70.53;27.20;;;;;;;-7.36;100.00;98448.69;4924285;29;20035;-87
2021/12/23 06:05:59;;;;;;;55.17;22.30;;;;;;;-7.26;100.00;98457.56;4924694;29;20035;-88
2021/12/23 06:08:27;;;;;;;61.92;22.23;;;;;;;-7.28;100.00;98465.31;4923869;29;20521;-89
2021/12/23 06:10:52;;;;;;;69.25;22.92;;;;;;;-7.19;100.00;98469.84;4923691;29;20037;-86
2021/12/23 06:20:45;;;;;;;213.80;68.07;;;;;;;-6.97;100.00;98491.97;4969709;29;20095;-87
2021/12/23 06:24:02;;;;;;;;;;;;;;;;;;;;;
2021/12/23 06:30:32;;;;;;;167.95;61.42;;;;;;;-7.14;100.00;98471.69;4956222;29;20047;-85
2021/12/23 06:33:13;;;;;;;222.93;81.82;;;;;;;-6.95;100.00;98483.34;4955831;28;20137;-86
2021/12/23 06:36:38;;;;;;;;;;;;;;;;;;;;;
2021/12/23 06:39:38;;;;;;;188.85;68.38;;;;;;;-6.65;100.00;98504.81;4971788;28;20155;-86
2021/12/23 06:42:54;;;;;;;200.95;81.50;;;;;;;-6.90;100.00;98449.66;4945101;28;20582;-87
2021/12/23 06:45:23;;;;;;;181.18;72.40;;;;;;;-6.74;100.00;98462.16;4958117;28;20545;-86
2021/12/23 06:48:11;;;;;;;184.52;73.45;;;;;;;-7.00;100.00;98403.53;4947974;28;20051;-85
2021/12/23 06:51:04;;;;;;;200.25;79.03;;;;;;;-6.37;100.00;98440.31;4946618;28;20121;-86
2021/12/23 06:54:01;;;;;;;232.30;88.97;;;;;;;-4.81;99.37;98448.81;4947806;28;20507;-86
2021/12/23 06:57:15;;;;;;;;;;;;;;;;;;;;;
2021/12/23 07:21:21;;;;;;;149.30;63.42;;;;;;;4.24;49.14;98428.53;4826129;29;20075;-89
2021/12/23 07:23:46;;;;;;;143.90;65.47;;;;;;;4.53;47.32;98413.72;4822229;29;20038;-86
2021/12/23 07:26:12;;;;;;;173.13;78.47;;;;;;;4.46;47.18;98405.03;4866028;29;20041;-86
2021/12/23 07:28:38;;;;;;;147.65;70.15;;;;;;;4.93;46.70;98414.47;4926145;29;20039;-86
2021/12/23 07:31:03;;;;;;;178.68;78.22;;;;;;;4.86;46.61;98403.13;4939131;28;20030;-86
2021/12/23 07:33:29;;;;;;;166.18;76.88;;;;;;;5.30;44.97;98386.06;4944462;28;20137;-86
2021/12/23 07:35:55;;;;;;;141.05;66.13;;;;;;;5.52;44.42;98386.34;4944980;28;20485;-86
2021/12/23 07:38:20;;;;;;;143.35;66.80;;;;;;;5.27;45.20;98394.09;4945174;28;20038;-87
2021/12/23 07:40:46;;;;;;;88.70;43.03;;;;;;;5.34;45.15;98394.81;4945322;28;20125;-86
2021/12/23 07:43:31;;;;;;;89.55;43.88;;;;;;;5.54;44.52;98403.06;4938128;28;20048;-88
2021/12/23 07:45:58;;;;;;;95.15;46.67;;;;;;;4.93;46.02;98399.44;4928364;29;20035;-88
2021/12/23 07:48:24;;;;;;;99.78;47.90;;;;;;;4.99;45.25;98402.81;4949080;28;20042;-88
2021/12/23 07:50:49;;;;;;;119.95;54.85;;;;;;;4.93;45.63;98403.84;4944415;28;20531;-88
2021/12/23 07:53:16;;;;;;;125.63;58.97;;;;;;;5.19;44.83;98381.97;4944225;28;20050;-87
2021/12/23 07:55:43;;;;;;;137.07;61.65;;;;;;;5.31;44.64;98411.69;4961464;28;20049;-89
2021/12/23 07:58:09;;;;;;;157.80;72.40;;;;;;;4.04;46.99;98403.38;4934391;29;20050;-87
2021/12/23 08:00:35;;;;;;;156.48;73.38;;;;;;;3.28;48.44;98375.91;4941517;29;20035;-86
2021/12/23 08:03:01;;;;;;;179.52;82.68;;;;;;;3.67;49.14;98405.94;4928207;29;20419;-88
2021/12/23 08:05:27;;;;;;;134.98;65.00;;;;;;;3.14;50.35;98407.88;4934915;28;20043;-88
2021/12/23 08:07:54;;;;;;;135.80;63.55;;;;;;;2.70;51.52;98439.53;4946052;28;20129;-89
2021/12/23 08:20:50;;;;;;;88.63;40.92;;;;;;;3.35;49.30;98414.56;4883004;29;20410;-89
2021/12/23 08:26:42;;;;;;;101.53;47.95;;;;;;;3.77;50.33;98441.91;4902666;29;20076;-88
2021/12/23 08:29:10;;;;;;;94.13;40.10;;;;;;;4.64;47.51;98406.38;4869198;29;20044;-87
2021/12/23 08:31:36;;;;;;;81.43;37.08;;;;;;;5.41;46.33;98417.63;4945945;28;20213;-89
2021/12/23 08:34:02;;;;;;;73.90;35.03;;;;;;;5.96;44.69;98412.50;4944040;28;20066;-88
2021/12/23 08:36:29;;;;;;;59.60;31.10;;;;;;;4.40;48.01;98426.38;4944231;28;20027;-88
2021/12/23 08:38:55;;;;;;;65.88;32.45;;;;;;;4.13;48.47;98395.22;4944630;28;20031;-87
2021/12/23 08:41:21;;;;;;;66.32;32.65;;;;;;;3.91;48.52;98386.91;4943880;28;20130;-88
2021/12/23 08:43:48;;;;;;;77.55;35.03;;;;;;;4.46;47.68;98407.69;4944255;28;20490;-89
2021/12/23 08:46:13;;;;;;;68.85;34.80;;;;;;;4.93;47.05;98404.72;4945143;28;20445;-88
2021/12/23 08:48:39;;;;;;;83.10;42.05;;;;;;;5.59;45.76;98395.88;4939338;29;20047;-88
2021/12/23 08:51:05;;;;;;;71.60;37.85;;;;;;;6.70;44.14;98385.34;4926144;29;20046;-88
2021/12/23 08:53:30;;;;;;;75.57;38.67;;;;;;;5.63;44.76;98367.47;4926001;29;20043;-89
2021/12/23 08:55:56;;;;;;;80.07;41.40;;;;;;;7.06;42.74;98381.44;4925667;29;20043;-88
2021/12/23 08:59:12;;;;;;;76.75;38.85;;;;;;;7.66;41.94;98382.81;4926228;29;20082;-89
2021/12/23 09:01:40;;;;;;;74.05;39.78;;;;;;;7.50;41.43;98339.06;4942758;29;20495;-90
2021/12/23 09:04:05;;;;;;;80.38;40.83;;;;;;;8.37;39.70;98357.91;4942641;29;20040;-89
2021/12/23 09:06:32;;;;;;;77.95;43.15;;;;;;;8.36;40.04;98346.38;4942910;29;20467;-88
2021/12/23 09:08:58;;;;;;;84.72;45.58;;;;;;;8.06;40.46;98352.88;4927277;29;20499;-90
2021/12/23 09:11:24;;;;;;;86.78;45.65;;;;;;;8.29;39.13;98341.34;4927476;29;20070;-89
2021/12/23 09:13:50;;;;;;;92.95;48.60;;;;;;;8.36;39.16;98348.19;4928389;29;20109;-91
2021/12/23 09:16:16;;;;;;;91.55;47.97;;;;;;;8.03;39.00;98316.56;4926160;29;20055;-89
2021/12/23 09:22:03;;;;;;;89.90;48.50;;;;;;;8.80;37.85;98320.53;4961064;29;20038;-89
2021/12/23 09:28:10;;;;;;;100.10;52.63;;;;;;;8.86;37.73;98279.41;4959690;29;20095;-88
2021/12/23 09:33:22;;;;;;;106.00;55.00;;;;;;;10.08;35.92;98284.41;4944526;29;20606;-91
2021/12/23 09:35:48;;;;;;;118.15;62.35;;;;;;;10.23;35.66;98289.03;4926664;29;20038;-91
2021/12/23 09:38:14;;;;;;;109.07;62.10;;;;;;;10.54;34.74;98261.66;4926058;29;20423;-89
2021/12/23 09:40:40;;;;;;;115.95;67.28;;;;;;;11.07;34.45;98283.00;4926769;29;20035;-90
2021/12/23 09:43:11;;;;;;;128.63;67.32;;;;;;;10.93;34.27;98247.16;4927793;29;20086;-90
2021/12/23 09:45:38;;;;;;;113.13;63.50;;;;;;;10.82;34.18;98242.38;4927671;29;20487;-90
2021/12/23 09:48:04;;;;;;;107.50;60.47;;;;;;;11.53;33.68;98251.94;4926963;29;20105;-89
2021/12/23 09:50:38;;;;;;;112.88;58.47;;;;;;;11.73;33.15;98240.16;4927588;29;20039;-89
2021/12/23 09:53:05;;;;;;;97.80;55.55;;;;;;;11.66;32.62;98222.66;4926543;29;20039;-89
2021/12/23 09:55:34;;;;;;;101.90;57.50;;;;;;;11.44;32.71;98194.34;4928813;29;20090;-89
2021/12/23 09:58:00;;;;;;;74.40;43.03;;;;;;;10.53;33.20;98208.22;4926667;29;20039;-90
2021/12/23 10:00:29;;;;;;;75.50;41.53;;;;;;;8.63;35.95;98211.94;4930916;29;20039;-90
2021/12/23 10:02:56;;;;;;;86.70;46.30;;;;;;;7.73;38.09;98248.53;4935181;29;20061;-91
2021/12/23 10:05:25;;;;;;;86.57;45.78;;;;;;;8.43;37.49;98246.56;4945327;29;20039;-90
2021/12/23 10:07:53;;;;;;;94.40;51.70;;;;;;;8.89;36.57;98189.41;4928903;29;20043;-89
2021/12/23 10:10:28;;;;;;;90.07;49.88;;;;;;;9.59;35.74;98228.91;4933055;29;20046;-91
2021/12/23 10:38:15;;;;;;;24.33;14.88;;;;;;;11.38;30.88;98130.41;4970793;28;20042;-91
2021/12/23 10:40:53;;;;;;;32.75;17.27;;;;;;;11.14;31.14;98144.28;4950133;28;20031;-90
2021/12/23 10:43:25;;;;;;;29.95;19.13;;;;;;;12.20;29.77;98131.06;4949780;28;20055;-89
2021/12/23 10:45:55;;;;;;;30.98;16.10;;;;;;;13.03;28.69;98128.63;4966262;28;20046;-90
2021/12/23 10:48:23;;;;;;;25.45;15.45;;;;;;;10.86;30.92;98121.69;4950950;28;20045;-90
2021/12/23 10:50:56;;;;;;;28.05;14.70;;;;;;;10.84;31.42;98128.06;4951520;28;20062;-90
2021/12/23 10:54:08;;;;;;;35.95;14.93;;;;;;;11.64;30.46;98122.72;4951510;28;20019;-91
2021/12/23 10:59:20;;;;;;;26.42;13.25;;;;;;;10.81;30.61;98118.41;4970553;28;20067;-91
2021/12/23 11:02:26;;;;;;;21.45;12.30;;;;;;;11.66;29.31;98123.50;4950485;28;20031;-91
2021/12/23 11:05:18;;;;;;;24.00;10.68;;;;;;;11.98;28.69;98111.81;4971799;28;20035;-91
2021/12/23 11:08:04;;;;;;;79.32;39.95;;;;;;;12.58;29.25;98085.81;4972718;28;20787;-92
2021/12/23 11:41:38;;;;;;;55.10;33.00;;;;;;;11.73;29.96;98063.25;4964391;28;20035;-89
2021/12/23 11:44:03;;;;;;;52.88;30.48;;;;;;;12.38;29.03;98044.09;4963619;28;20057;-89
2021/12/23 11:46:34;;;;;;;54.60;30.15;;;;;;;11.68;29.88;98049.25;4930114;29;20043;-91
2021/12/23 11:49:02;;;;;;;58.63;31.73;;;;;;;11.54;31.23;98041.13;4943331;29;20114;-91
2021/12/23 11:51:43;;;;;;;66.55;34.72;;;;;;;12.17;29.98;98029.31;4927122;29;20102;-90
2021/12/23 11:54:11;;;;;;;63.63;32.15;;;;;;;11.14;30.35;98027.34;4931867;29;20414;-91
2021/12/23 11:56:41;;;;;;;62.65;28.52;;;;;;;10.10;32.03;98051.78;4927460;29;20055;-91
2021/12/23 11:59:09;;;;;;;48.30;29.63;;;;;;;11.03;30.98;98043.16;4927021;29;20038;-89
2021/12/23 12:01:43;;;;;;;50.85;28.70;;;;;;;12.40;29.32;98034.13;4932796;28;20199;-89
2021/12/23 12:04:21;;;;;;;51.03;29.80;;;;;;;13.43;28.39;98016.81;4962748;28;20503;-90
2021/12/23 12:06:48;;;;;;;51.70;28.52;;;;;;;13.33;27.78;98026.44;4947261;28;20035;-92
2021/12/23 12:09:27;;;;;;;64.43;30.95;;;;;;;13.98;27.64;98026.56;4948104;28;20038;-91
2021/12/23 12:11:58;;;;;;;49.22;29.90;;;;;;;14.50;26.44;98016.63;4946294;28;20038;-90
2021/12/23 12:14:36;;;;;;;55.95;32.20;;;;;;;13.53;27.29;98017.91;4963755;28;20110;-91
2021/12/23 12:17:23;;;;;;;44.35;27.40;;;;;;;13.74;27.19;98017.44;4947949;28;20149;-93
2021/12/23 12:19:53;;;;;;;36.45;21.75;;;;;;;13.92;26.96;98014.38;4981801;28;20046;-92
2021/12/23 12:23:07;;;;;;;39.95;21.15;;;;;;;13.10;27.39;98007.41;4965205;28;20056;-93
2021/12/23 12:25:40;;;;;;;44.70;21.35;;;;;;;13.38;27.58;98002.78;4952902;28;20038;-93
2021/12/23 12:28:06;;;;;;;40.30;22.48;;;;;;;13.71;27.39;97999.72;4968477;28;20038;-92
2021/12/23 12:30:46;;;;;;;45.40;24.38;;;;;;;14.90;25.70;97997.63;4985375;28;20042;-92
2021/12/23 12:33:19;;;;;;;35.72;19.83;;;;;;;13.95;26.12;97965.75;4948081;28;20034;-91
2021/12/23 12:36:03;;;;;;;28.42;16.52;;;;;;;12.75;27.81;97990.81;4962284;28;20030;-92
2021/12/23 12:38:47;;;;;;;29.10;17.52;;;;;;;11.96;28.53;97985.03;4963890;28;20030;-93
2021/12/23 12:41:28;;;;;;;34.85;17.35;;;;;;;12.66;27.71;97980.66;4946737;28;20054;-92
2021/12/23 12:44:28;;;;;;;18.58;11.70;;;;;;;13.50;26.69;97972.41;4947805;28;20058;-92
2021/12/23 12:49:36;;;;;;;24.15;10.18;;;;;;;13.64;26.95;97979.56;4963844;28;20039;-91
2021/12/23 12:52:19;;;;;;;31.45;17.17;;;;;;;13.43;26.60;97936.19;4947037;28;20050;-92
2021/12/23 12:55:05;;;;;;;39.22;18.85;;;;;;;14.12;26.07;97967.28;4962711;28;20042;-91
2021/12/23 12:57:35;;;;;;;20.50;9.93;;;;;;;14.18;25.83;97939.94;4960699;28;20122;-91
2021/12/23 13:00:34;;;;;;;20.83;11.27;;;;;;;14.63;25.71;97968.16;4947728;28;20125;-94
2021/12/23 13:03:12;;;;;;;15.48;9.10;;;;;;;15.43;25.67;97946.06;4948430;28;20027;-91
2021/12/23 13:05:43;;;;;;;16.10;9.13;;;;;;;15.43;25.34;97943.34;4945702;28;20038;-89
2021/12/23 13:08:24;;;;;;;14.05;9.63;;;;;;;14.44;25.76;97947.09;4943918;28;20035;-90
2021/12/23 13:10:50;;;;;;;20.90;10.60;;;;;;;15.22;25.02;97947.66;4943928;28;20040;-89
2021/12/23 13:13:33;;;;;;;23.40;9.63;;;;;;;14.45;25.48;97950.63;4945005;28;20413;-90
2021/12/23 13:16:06;;;;;;;17.60;10.35;;;;;;;14.70;26.15;97957.81;4960119;28;20489;-90
2021/12/23 13:18:31;;;;;;;24.73;14.38;;;;;;;14.92;25.27;97952.63;4944895;28;20039;-89
2021/12/23 13:21:04;;;;;;;18.08;11.85;;;;;;;14.81;25.98;97949.81;4945066;28;20042;-91
2021/12/23 13:23:40;;;;;;;22.25;12.18;;;;;;;14.77;25.85;97953.69;4945473;28;20023;-91
2021/12/23 13:26:12;;;;;;;16.77;10.30;;;;;;;14.61;24.78;97938.66;4946112;28;20043;-92
2021/12/23 13:28:40;;;;;;;19.83;10.73;;;;;;;13.86;26.53;97949.41;4946408;28;20037;-90
2021/12/23 13:31:21;;;;;;;22.58;10.13;;;;;;;13.93;26.85;97945.31;4943769;28;20035;-90
2021/12/23 13:33:50;;;;;;;18.40;10.07;;;;;;;13.65;26.64;97959.78;4960296;28;20038;-89